createdAt,value
2019-04-03T00:00:46.400Z,2.13
2019-04-03T00:03:17.011Z,2.17
2019-04-03T00:05:48.053Z,2.15
2019-04-03T00:08:19.705Z,2.15
2019-04-03T00:10:50.926Z,2.15
2019-04-03T00:13:22.571Z,2.10
2019-04-03T00:15:52.922Z,2.05
2019-04-03T00:18:25.605Z,1.98
2019-04-03T00:20:58.484Z,2.03
2019-04-03T00:23:31.694Z,1.97
2019-04-03T00:26:02.001Z,2.00
2019-04-03T00:28:33.040Z,2.02
2019-04-03T00:31:03.468Z,1.95
2019-04-03T00:33:34.500Z,1.92
2019-04-03T00:36:06.062Z,1.88
2019-04-03T00:38:37.094Z,1.94
2019-04-03T00:41:08.008Z,1.90
2019-04-03T00:43:38.460Z,1.88
2019-04-03T00:46:10.415Z,1.88
2019-04-03T00:48:41.347Z,1.88
2019-04-03T00:51:12.600Z,1.83
2019-04-03T00:53:42.838Z,1.85
2019-04-03T00:56:13.719Z,1.84
2019-04-03T00:58:46.117Z,1.80
2019-04-03T01:01:20.011Z,1.74
2019-04-03T01:03:51.322Z,1.80
2019-04-03T01:06:21.820Z,1.80
2019-04-03T01:08:54.374Z,1.76
2019-04-03T01:11:25.628Z,1.73
2019-04-03T01:13:56.163Z,1.76
2019-04-03T01:16:27.497Z,1.78
2019-04-03T01:18:59.873Z,1.75
2019-04-03T01:21:30.199Z,1.67
2019-04-03T01:24:01.024Z,1.67
2019-04-03T01:26:31.396Z,1.66
2019-04-03T01:29:02.386Z,1.62
2019-04-03T01:31:34.453Z,1.61
2019-04-03T01:34:07.637Z,1.56
2019-04-03T01:36:39.192Z,1.53
2019-04-03T01:39:12.688Z,1.53
2019-04-03T01:41:44.241Z,1.53
2019-04-03T01:44:15.084Z,1.50
2019-04-03T01:46:48.782Z,1.42
2019-04-03T01:49:20.123Z,1.42
2019-04-03T01:51:54.239Z,1.52
2019-04-03T01:54:25.278Z,1.48
2019-04-03T01:56:57.092Z,1.44
2019-04-03T01:59:28.493Z,1.46
2019-04-03T02:02:00.952Z,1.42
2019-04-03T02:04:32.282Z,1.38
2019-04-03T02:07:03.180Z,1.36
2019-04-03T02:09:34.682Z,1.36
2019-04-03T02:12:04.885Z,1.35
2019-04-03T02:14:36.046Z,1.26
2019-04-03T02:17:08.209Z,1.24
2019-04-03T02:19:39.326Z,1.20
2019-04-03T02:22:13.284Z,1.22
2019-04-03T02:24:43.995Z,1.17
2019-04-03T02:27:14.623Z,1.15
2019-04-03T02:29:45.109Z,1.23
2019-04-03T02:32:18.347Z,1.15
2019-04-03T02:34:49.075Z,1.16
2019-04-03T02:37:19.735Z,1.10
2019-04-03T02:39:50.950Z,1.14
2019-04-03T02:42:21.140Z,1.09
2019-04-03T02:44:51.932Z,1.08
2019-04-03T02:47:22.856Z,1.09
2019-04-03T02:49:55.922Z,1.01
2019-04-03T02:52:27.606Z,1.01
2019-04-03T02:54:59.438Z,1.03
2019-04-03T02:57:31.094Z,0.97
2019-04-03T03:00:02.340Z,0.96
2019-04-03T03:02:33.091Z,0.97
2019-04-03T03:05:05.156Z,0.97
2019-04-03T03:07:37.396Z,0.98
2019-04-03T03:10:08.364Z,1.02
2019-04-03T03:12:39.104Z,1.01
2019-04-03T03:15:12.328Z,1.08
2019-04-03T03:17:44.082Z,1.01
2019-04-03T03:20:15.416Z,0.97
2019-04-03T03:22:49.845Z,0.98
2019-04-03T03:25:19.446Z,0.95
2019-04-03T03:27:49.867Z,1.03
2019-04-03T03:30:45.359Z,1.09
2019-04-03T03:33:19.417Z,1.09
2019-04-03T03:35:34.665Z,1.09
2019-04-03T03:38:00.650Z,1.12
2019-04-03T03:40:31.442Z,1.13
2019-04-03T03:43:05.165Z,1.16
2019-04-03T03:45:34.157Z,1.16
2019-04-03T03:48:08.197Z,1.25
2019-04-03T03:50:38.171Z,1.30
2019-04-03T03:53:11.508Z,1.35
2019-04-03T03:55:41.483Z,1.36
2019-04-03T03:58:14.152Z,1.39
2019-04-03T04:00:48.722Z,1.33
2019-04-03T04:03:19.620Z,1.32
2019-04-03T04:05:53.734Z,1.39
2019-04-03T04:08:24.463Z,1.42
2019-04-03T04:10:58.174Z,1.45
2019-04-03T04:13:28.727Z,1.47
2019-04-03T04:16:02.825Z,1.46
2019-04-03T04:18:32.724Z,1.45
2019-04-03T04:21:03.697Z,1.47
2019-04-03T04:23:35.732Z,1.55
2019-04-03T04:26:05.932Z,1.67
2019-04-03T04:28:39.213Z,1.73
2019-04-03T04:31:12.978Z,1.70
2019-04-03T04:33:43.267Z,1.72
2019-04-03T04:36:14.090Z,1.78
2019-04-03T04:38:46.065Z,1.86
2019-04-03T04:41:16.778Z,1.92
2019-04-03T04:43:47.573Z,2.12
2019-04-03T04:46:19.260Z,2.21
2019-04-03T04:48:51.740Z,2.21
2019-04-03T04:51:25.369Z,2.27
2019-04-03T04:53:55.973Z,2.40
2019-04-03T04:56:26.602Z,2.54
2019-04-03T04:58:57.565Z,2.72
2019-04-03T05:01:30.631Z,2.81
2019-04-03T05:04:01.045Z,2.86
2019-04-03T05:06:32.296Z,2.99
2019-04-03T05:09:04.563Z,3.14
2019-04-03T05:11:39.416Z,3.09
2019-04-03T05:14:09.958Z,3.18
2019-04-03T05:16:41.364Z,3.21
2019-04-03T05:19:17.906Z,3.30
2019-04-03T05:21:44.573Z,3.44
2019-04-03T05:24:16.612Z,3.58
2019-04-03T05:26:47.364Z,3.73
2019-04-03T05:29:18.715Z,3.96
2019-04-03T05:31:50.757Z,4.19
2019-04-03T05:34:21.310Z,4.40
2019-04-03T05:36:51.831Z,4.60
2019-04-03T05:39:24.706Z,4.72
2019-04-03T05:41:58.360Z,4.85
2019-04-03T05:44:28.575Z,4.92
2019-04-03T05:46:59.885Z,5.10
2019-04-03T05:49:30.652Z,5.29
2019-04-03T05:52:04.082Z,5.37
2019-04-03T05:54:35.150Z,5.38
2019-04-03T05:57:05.635Z,5.50
2019-04-03T05:59:36.413Z,5.62
2019-04-03T06:02:14.709Z,5.72
2019-04-03T06:04:41.855Z,5.79
2019-04-03T06:07:13.539Z,5.81
2019-04-03T06:09:45.786Z,6.07
2019-04-03T06:12:18.813Z,6.15
2019-04-03T06:14:50.250Z,6.14
2019-04-03T06:17:22.619Z,6.30
2019-04-03T06:19:53.431Z,6.31
2019-04-03T06:22:24.856Z,6.34
2019-04-03T06:24:57.044Z,6.52
2019-04-03T06:27:29.207Z,6.58
2019-04-03T06:30:00.890Z,6.74
2019-04-03T06:32:32.719Z,6.67
2019-04-03T06:35:04.164Z,6.75
2019-04-03T06:37:35.310Z,6.78
2019-04-03T06:40:12.150Z,7.09
2019-04-03T06:42:44.876Z,7.22
2019-04-03T06:45:15.765Z,7.26
2019-04-03T06:47:46.964Z,7.27
2019-04-03T06:50:17.966Z,7.42
2019-04-03T06:52:48.921Z,7.40
2019-04-03T06:55:19.412Z,7.45
2019-04-03T06:57:50.183Z,7.48
2019-04-03T07:00:20.712Z,7.73
2019-04-03T07:02:53.301Z,7.75
2019-04-03T07:05:27.273Z,7.93
2019-04-03T07:07:57.610Z,7.63
2019-04-03T07:10:32.031Z,7.63
2019-04-03T07:13:02.869Z,7.79
2019-04-03T07:15:34.676Z,7.88
2019-04-03T07:18:06.502Z,8.08
2019-04-03T07:20:38.234Z,8.38
2019-04-03T07:23:08.480Z,8.73
2019-04-03T07:25:40.005Z,8.79
2019-04-03T07:28:11.623Z,8.90
2019-04-03T07:30:43.320Z,9.17
2019-04-03T07:33:16.106Z,9.32
2019-04-03T07:35:47.955Z,8.93
2019-04-03T07:38:18.179Z,9.12
2019-04-03T07:40:52.019Z,9.23
2019-04-03T07:43:26.937Z,8.61
2019-04-03T07:45:59.334Z,8.58
2019-04-03T07:48:33.057Z,8.55
2019-04-03T07:51:01.956Z,9.12
2019-04-03T07:53:36.062Z,9.08
2019-04-03T07:56:06.592Z,9.16
2019-04-03T07:58:37.448Z,9.50
2019-04-03T08:01:10.875Z,9.59
2019-04-03T08:03:41.922Z,9.52
2019-04-03T08:06:14.968Z,9.19
2019-04-03T08:08:45.600Z,9.54
2019-04-03T08:11:16.136Z,9.90
2019-04-03T08:13:46.782Z,9.82
2019-04-03T08:16:18.830Z,9.19
2019-04-03T08:18:52.058Z,9.00
2019-04-03T08:21:24.020Z,8.72
2019-04-03T08:23:54.401Z,9.34
2019-04-03T08:26:26.689Z,9.69
2019-04-03T08:29:00.691Z,9.95
2019-04-03T08:31:29.573Z,10.63
2019-04-03T08:34:14.279Z,11.40
2019-04-03T08:36:34.032Z,12.55
2019-04-03T08:39:05.913Z,13.04
2019-04-03T08:41:37.962Z,13.18
2019-04-03T08:44:09.189Z,12.75
2019-04-03T08:46:43.806Z,12.21
2019-04-03T08:49:14.320Z,12.12
2019-04-03T08:51:45.490Z,12.67
2019-04-03T08:54:16.706Z,12.23
2019-04-03T08:56:48.747Z,12.30
2019-04-03T08:59:20.418Z,12.84
2019-04-03T09:01:54.914Z,13.33
2019-04-03T09:04:25.718Z,12.20
2019-04-03T09:06:58.682Z,11.93
2019-04-03T09:09:30.439Z,12.82
2019-04-03T09:12:01.559Z,13.11
2019-04-03T09:14:31.883Z,12.44
2019-04-03T09:17:03.526Z,12.31
2019-04-03T09:19:35.805Z,11.85
2019-04-03T09:22:06.365Z,11.39
2019-04-03T09:24:37.522Z,11.50
2019-04-03T09:27:09.326Z,12.56
2019-04-03T09:29:40.172Z,13.56
2019-04-03T09:32:12.204Z,13.22
2019-04-03T09:34:43.927Z,12.50
2019-04-03T09:37:17.638Z,12.37
2019-04-03T09:39:48.419Z,11.94
2019-04-03T09:42:19.606Z,11.56
2019-04-03T09:44:51.902Z,11.40
2019-04-03T09:47:22.850Z,11.57
2019-04-03T09:49:53.706Z,11.69
2019-04-03T09:52:37.417Z,12.04
2019-04-03T09:55:00.706Z,12.51
2019-04-03T09:57:32.495Z,12.46
2019-04-03T10:00:02.786Z,12.83
2019-04-03T10:02:34.823Z,13.17
2019-04-03T10:05:07.524Z,13.55
2019-04-03T10:07:39.240Z,13.49
2019-04-03T10:10:09.602Z,12.83
2019-04-03T10:12:44.706Z,12.44
2019-04-03T10:15:17.654Z,13.15
2019-04-03T10:17:48.147Z,13.26
2019-04-03T10:20:20.170Z,12.98
2019-04-03T10:22:54.299Z,13.48
2019-04-03T10:25:26.424Z,13.27
2019-04-03T10:27:57.430Z,13.40
2019-04-03T10:30:29.163Z,14.78
2019-04-03T10:33:00.143Z,15.45
2019-04-03T10:35:31.722Z,14.71
2019-04-03T10:38:03.179Z,14.68
2019-04-03T10:40:34.877Z,14.34
2019-04-03T10:43:07.343Z,14.17
2019-04-03T10:45:39.110Z,13.80
2019-04-03T10:48:12.403Z,13.19
2019-04-03T10:50:43.043Z,14.70
2019-04-03T10:53:15.552Z,16.96
2019-04-03T10:55:48.457Z,17.94
2019-04-03T10:58:20.172Z,18.53
2019-04-03T11:00:52.662Z,19.41
2019-04-03T11:03:26.082Z,19.40
2019-04-03T11:05:58.911Z,19.13
2019-04-03T11:08:29.323Z,18.09
2019-04-03T11:11:04.490Z,17.16
2019-04-03T11:13:35.202Z,16.03
2019-04-03T11:16:06.437Z,14.85
2019-04-03T11:18:39.228Z,16.15
2019-04-03T11:21:14.358Z,18.50
2019-04-03T11:23:45.949Z,20.28
2019-04-03T11:26:19.608Z,19.34
2019-04-03T11:28:59.736Z,16.99
2019-04-03T11:31:33.572Z,15.05
2019-04-03T11:34:02.763Z,15.99
2019-04-03T11:36:36.056Z,15.55
2019-04-03T11:39:15.074Z,15.24
2019-04-03T11:41:43.053Z,17.85
2019-04-03T11:44:17.066Z,19.60
2019-04-03T11:46:49.142Z,21.31
2019-04-03T11:49:21.025Z,21.95
2019-04-03T11:51:52.917Z,18.63
2019-04-03T11:54:26.043Z,15.39
2019-04-03T11:56:57.238Z,13.95
2019-04-03T11:59:29.196Z,14.99
2019-04-03T12:02:01.317Z,17.71
2019-04-03T12:04:33.392Z,21.12
2019-04-03T12:07:04.507Z,23.04
2019-04-03T12:09:35.847Z,23.50
2019-04-03T12:12:09.449Z,21.37
2019-04-03T12:14:39.370Z,21.89
2019-04-03T12:17:10.139Z,21.45
2019-04-03T12:19:40.466Z,20.17
2019-04-03T12:22:11.411Z,20.28
2019-04-03T12:24:42.139Z,18.73
2019-04-03T12:27:14.644Z,16.93
2019-04-03T12:29:46.430Z,15.29
2019-04-03T12:32:17.215Z,16.61
2019-04-03T12:34:49.754Z,16.57
2019-04-03T12:37:24.985Z,15.38
2019-04-03T12:39:56.243Z,14.28
2019-04-03T12:42:27.960Z,13.90
2019-04-03T12:44:58.549Z,13.78
2019-04-03T12:47:30.568Z,14.53
2019-04-03T12:50:02.091Z,15.50
2019-04-03T12:52:33.334Z,15.41
2019-04-03T12:55:09.372Z,14.63
2019-04-03T12:57:40.338Z,16.68
2019-04-03T13:00:13.093Z,20.47
2019-04-03T13:02:44.176Z,19.73
2019-04-03T13:05:15.429Z,18.07
2019-04-03T13:07:47.482Z,15.74
2019-04-03T13:10:21.547Z,14.10
2019-04-03T13:12:54.620Z,13.41
2019-04-03T13:15:24.810Z,13.02
2019-04-03T13:17:57.766Z,12.59
2019-04-03T13:20:30.349Z,12.75
2019-04-03T13:23:00.689Z,14.30
2019-04-03T13:25:31.437Z,18.85
2019-04-03T13:28:04.912Z,21.43
2019-04-03T13:30:35.802Z,22.11
2019-04-03T13:33:08.439Z,22.08
2019-04-03T13:35:38.973Z,23.10
2019-04-03T13:38:11.032Z,24.93
2019-04-03T13:40:42.265Z,25.21
2019-04-03T13:43:12.808Z,24.69
2019-04-03T13:45:46.196Z,24.00
2019-04-03T13:48:18.474Z,21.35
2019-04-03T13:50:49.067Z,17.58
2019-04-03T13:53:20.974Z,15.77
2019-04-03T13:55:52.711Z,14.75
2019-04-03T13:58:23.435Z,14.58
2019-04-03T14:01:01.392Z,14.70
2019-04-03T14:03:27.830Z,16.80
2019-04-03T14:05:58.653Z,19.74
2019-04-03T14:08:30.981Z,18.25
2019-04-03T14:11:02.622Z,15.93
2019-04-03T14:13:32.813Z,14.05
2019-04-03T14:16:04.408Z,13.60
2019-04-03T14:18:34.928Z,13.10
2019-04-03T14:21:06.584Z,12.94
2019-04-03T14:23:39.782Z,14.82
2019-04-03T14:26:12.942Z,16.65
2019-04-03T14:28:42.054Z,18.61
2019-04-03T14:31:12.830Z,18.67
2019-04-03T14:33:46.256Z,18.20
2019-04-03T14:36:18.709Z,15.56
2019-04-03T14:38:48.537Z,16.28
2019-04-03T14:41:19.488Z,18.28
2019-04-03T14:43:53.344Z,18.88
2019-04-03T14:46:26.971Z,16.12
2019-04-03T14:48:59.656Z,14.74
2019-04-03T14:51:31.638Z,13.73
2019-04-03T14:54:03.824Z,12.71
2019-04-03T14:56:39.110Z,12.47
2019-04-03T14:59:09.594Z,12.30
2019-04-03T15:01:41.424Z,12.47
2019-04-03T15:04:13.035Z,14.66
2019-04-03T15:06:46.776Z,16.36
2019-04-03T15:09:17.123Z,16.98
2019-04-03T15:11:51.326Z,16.99
2019-04-03T15:14:23.658Z,15.98
2019-04-03T15:16:56.792Z,15.98
2019-04-03T15:19:30.042Z,14.63
2019-04-03T15:22:02.198Z,13.09
2019-04-03T15:24:32.474Z,12.43
2019-04-03T15:27:04.348Z,12.05
2019-04-03T15:29:38.251Z,11.98
2019-04-03T15:32:07.543Z,12.39
2019-04-03T15:34:38.181Z,12.98
2019-04-03T15:37:13.325Z,13.58
2019-04-03T15:39:47.783Z,14.02
2019-04-03T15:42:17.629Z,13.94
2019-04-03T15:44:52.080Z,14.03
2019-04-03T15:47:34.481Z,13.65
2019-04-03T15:49:59.975Z,13.22
2019-04-03T15:52:32.617Z,12.79
2019-04-03T15:55:06.242Z,11.51
2019-04-03T15:57:40.021Z,10.87
2019-04-03T16:00:15.739Z,10.33
2019-04-03T16:02:47.293Z,9.99
2019-04-03T16:05:18.835Z,9.63
2019-04-03T16:07:50.405Z,9.54
2019-04-03T16:10:24.569Z,9.34
2019-04-03T16:12:55.705Z,9.20
2019-04-03T16:15:26.713Z,9.20
2019-04-03T16:17:59.979Z,8.94
2019-04-03T16:20:31.355Z,8.54
2019-04-03T16:23:03.840Z,8.19
2019-04-03T16:25:35.847Z,7.97
2019-04-03T16:28:06.811Z,7.87
2019-04-03T16:30:41.175Z,7.79
2019-04-03T16:33:19.833Z,7.63
2019-04-03T16:35:45.923Z,7.44
2019-04-03T16:38:17.692Z,7.42
2019-04-03T16:40:50.059Z,7.49
2019-04-03T16:43:22.661Z,7.51
2019-04-03T16:45:54.178Z,7.43
2019-04-03T16:48:24.699Z,7.43
2019-04-03T16:50:59.733Z,7.39
2019-04-03T16:53:29.837Z,7.41
2019-04-03T16:56:01.306Z,7.38
2019-04-03T16:58:32.234Z,7.34
2019-04-03T17:01:03.692Z,7.24
2019-04-03T17:03:34.014Z,7.20
2019-04-03T17:06:04.636Z,7.17
2019-04-03T17:08:35.283Z,7.06
2019-04-03T17:11:07.226Z,7.08
2019-04-03T17:13:38.571Z,7.08
2019-04-03T17:16:10.799Z,6.92
2019-04-03T17:18:41.374Z,6.90
2019-04-03T17:21:15.483Z,6.89
2019-04-03T17:23:48.264Z,6.73
2019-04-03T17:26:18.687Z,6.74
2019-04-03T17:29:02.801Z,6.74
2019-04-03T17:31:26.941Z,6.61
2019-04-03T17:34:01.023Z,6.43
2019-04-03T17:36:31.572Z,6.40
2019-04-03T17:39:04.554Z,6.34
2019-04-03T17:41:36.116Z,6.31
2019-04-03T17:44:09.582Z,6.22
2019-04-03T17:46:41.546Z,6.19
2019-04-03T17:49:15.822Z,6.24
2019-04-03T17:51:46.289Z,6.21
2019-04-03T17:54:18.311Z,6.15
2019-04-03T17:56:51.355Z,6.08
2019-04-03T17:59:22.167Z,6.08
2019-04-03T18:01:55.054Z,6.11
2019-04-03T18:04:27.832Z,5.90
2019-04-03T18:07:00.922Z,5.92
2019-04-03T18:09:31.960Z,5.97
2019-04-03T18:12:02.692Z,5.87
2019-04-03T18:14:35.162Z,5.75
2019-04-03T18:17:06.207Z,5.64
2019-04-03T18:19:37.719Z,5.57
2019-04-03T18:22:09.112Z,5.58
2019-04-03T18:24:43.214Z,5.48
2019-04-03T18:27:17.222Z,5.49
2019-04-03T18:29:51.749Z,5.41
2019-04-03T18:32:23.704Z,5.36
2019-04-03T18:34:55.661Z,5.33
2019-04-03T18:37:26.401Z,5.25
2019-04-03T18:39:59.182Z,5.17
2019-04-03T18:42:32.264Z,5.16
2019-04-03T18:45:04.858Z,5.23
2019-04-03T18:47:41.433Z,5.29
2019-04-03T18:50:10.131Z,5.10
2019-04-03T18:52:40.744Z,4.96
2019-04-03T18:55:14.543Z,5.03
2019-04-03T18:57:46.075Z,4.97
2019-04-03T19:00:18.080Z,4.97
2019-04-03T19:02:49.798Z,5.07
2019-04-03T19:05:20.848Z,5.08
2019-04-03T19:07:55.802Z,5.09
2019-04-03T19:10:26.505Z,5.10
2019-04-03T19:12:59.278Z,4.99
2019-04-03T19:15:29.687Z,4.85
2019-04-03T19:18:06.003Z,4.81
2019-04-03T19:20:34.145Z,4.87
2019-04-03T19:23:07.085Z,4.79
2019-04-03T19:25:38.884Z,4.69
2019-04-03T19:28:10.436Z,4.68
2019-04-03T19:30:42.703Z,4.53
2019-04-03T19:33:14.576Z,4.52
2019-04-03T19:35:48.160Z,4.56
2019-04-03T19:38:19.614Z,4.52
2019-04-03T19:40:50.957Z,4.38
2019-04-03T19:43:21.691Z,4.43
2019-04-03T19:45:55.166Z,4.41
2019-04-03T19:48:26.646Z,4.40
2019-04-03T19:51:02.694Z,4.38
2019-04-03T19:53:35.782Z,4.41
2019-04-03T19:56:09.808Z,4.36
2019-04-03T19:58:43.902Z,4.32
2019-04-03T20:01:14.771Z,4.33
2019-04-03T20:03:45.573Z,4.35
2019-04-03T20:06:17.834Z,4.31
2019-04-03T20:08:49.667Z,4.24
2019-04-03T20:11:21.249Z,4.23
2019-04-03T20:13:53.412Z,4.43
2019-04-03T20:16:28.043Z,4.26
2019-04-03T20:18:59.794Z,4.33
2019-04-03T20:21:31.616Z,4.36
2019-04-03T20:24:02.790Z,4.34
2019-04-03T20:26:34.038Z,4.24
2019-04-03T20:29:04.874Z,4.23
2019-04-03T20:31:40.823Z,4.29
2019-04-03T20:34:12.952Z,4.25
2019-04-03T20:36:43.521Z,4.27
2019-04-03T20:39:13.781Z,4.20
2019-04-03T20:41:46.734Z,4.15
2019-04-03T20:44:22.090Z,3.99
2019-04-03T20:46:56.043Z,3.96
2019-04-03T20:49:26.910Z,4.00
2019-04-03T20:52:00.084Z,4.01
2019-04-03T20:54:30.727Z,3.99
2019-04-03T20:57:02.582Z,4.01
2019-04-03T20:59:33.626Z,3.99
2019-04-03T21:02:09.011Z,3.94
2019-04-03T21:04:39.508Z,3.84
2019-04-03T21:07:11.045Z,3.94
2019-04-03T21:09:44.645Z,3.91
2019-04-03T21:12:15.278Z,3.87
2019-04-03T21:14:47.503Z,3.93
2019-04-03T21:17:18.901Z,3.88
2019-04-03T21:19:52.972Z,3.91
2019-04-03T21:22:25.985Z,4.02
2019-04-03T21:24:58.667Z,4.14
2019-04-03T21:27:29.705Z,4.09
2019-04-03T21:30:00.745Z,4.23
2019-04-03T21:32:32.703Z,4.20
2019-04-03T21:35:04.542Z,4.23
2019-04-03T21:37:39.776Z,4.24
2019-04-03T21:40:10.324Z,4.10
2019-04-03T21:42:40.645Z,4.18
2019-04-03T21:45:13.744Z,4.06
2019-04-03T21:47:49.429Z,4.10
2019-04-03T21:50:20.016Z,4.13
2019-04-03T21:52:53.556Z,4.12
2019-04-03T21:55:23.024Z,4.20
2019-04-03T21:57:55.075Z,4.23
2019-04-03T22:00:55.345Z,4.28
2019-04-03T22:03:25.948Z,4.26
2019-04-03T22:05:56.661Z,4.29
2019-04-03T22:08:29.113Z,4.29
2019-04-03T22:11:03.891Z,4.23
2019-04-03T22:13:32.751Z,4.25
2019-04-03T22:16:04.410Z,4.15
2019-04-03T22:18:35.861Z,4.13
2019-04-03T22:21:06.338Z,4.06
2019-04-03T22:23:39.592Z,4.06
2019-04-03T22:26:11.634Z,4.01
2019-04-03T22:28:46.485Z,3.95
2019-04-03T22:31:18.014Z,3.91
2019-04-03T22:33:50.216Z,3.85
2019-04-03T22:36:21.766Z,3.79
2019-04-03T22:38:52.631Z,3.75
2019-04-03T22:41:25.224Z,3.67
2019-04-03T22:43:55.635Z,3.72
2019-04-03T22:46:26.508Z,3.69
2019-04-03T22:48:58.089Z,3.70
2019-04-03T22:51:29.000Z,3.67
2019-04-03T22:54:00.440Z,3.66
2019-04-03T22:56:30.768Z,3.59
2019-04-03T22:59:02.072Z,3.53
2019-04-03T23:01:32.329Z,3.49
2019-04-03T23:04:05.038Z,3.45
2019-04-03T23:06:35.636Z,3.32
2019-04-03T23:09:08.067Z,3.30
2019-04-03T23:11:39.089Z,3.19
2019-04-03T23:14:10.805Z,3.18
2019-04-03T23:16:43.237Z,3.14
2019-04-03T23:19:17.642Z,3.09
2019-04-03T23:21:48.117Z,3.22
2019-04-03T23:24:20.387Z,3.22
2019-04-03T23:26:53.506Z,3.12
2019-04-03T23:29:24.108Z,3.17
2019-04-03T23:31:54.602Z,3.05
2019-04-03T23:34:25.266Z,3.00
2019-04-03T23:36:55.894Z,3.04
2019-04-03T23:39:29.372Z,3.05
2019-04-03T23:42:00.636Z,2.96
2019-04-03T23:44:31.863Z,2.87
2019-04-03T23:47:02.307Z,2.79
2019-04-03T23:49:33.757Z,2.85
2019-04-03T23:52:04.283Z,2.83
2019-04-03T23:54:37.577Z,2.84
2019-04-03T23:57:10.869Z,2.79
2019-04-03T23:59:42.450Z,2.84
